sensor_id;sensor_type;location;lat;lon;timestamp;pressure;altitude;pressure_sealevel;temperature;humidity
76404;BME280;65232;48.358;2.122;2023-01-08T00:00:20;99932.69;;;10.26;84.60
76404;BME280;65232;48.358;2.122;2023-01-08T00:00:45;99929.16;;;10.25;84.64
76404;BME280;65232;48.358;2.122;2023-01-08T00:01:11;99931.84;;;10.25;84.90
76404;BME280;65232;48.358;2.122;2023-01-08T00:01:37;99932.25;;;10.31;84.60
76404;BME280;65232;48.358;2.122;2023-01-08T00:02:02;99935.75;;;10.31;84.35
76404;BME280;65232;48.358;2.122;2023-01-08T00:02:28;99932.38;;;10.29;84.42
76404;BME280;65232;48.358;2.122;2023-01-08T00:02:53;99930.41;;;10.31;84.17
76404;BME280;65232;48.358;2.122;2023-01-08T00:03:19;99929.53;;;10.40;84.08
76404;BME280;65232;48.358;2.122;2023-01-08T00:03:44;99926.84;;;10.40;83.91
76404;BME280;65232;48.358;2.122;2023-01-08T00:04:10;99926.06;;;10.30;84.18
76404;BME280;65232;48.358;2.122;2023-01-08T00:04:35;99925.63;;;10.35;84.03
76404;BME280;65232;48.358;2.122;2023-01-08T00:05:01;99912.81;;;10.38;83.80
76404;BME280;65232;48.358;2.122;2023-01-08T00:05:26;99930.13;;;10.34;83.99
76404;BME280;65232;48.358;2.122;2023-01-08T00:05:52;99930.13;;;10.34;84.01
76404;BME280;65232;48.358;2.122;2023-01-08T00:06:18;99933.22;;;10.30;84.27
76404;BME280;65232;48.358;2.122;2023-01-08T00:06:45;99935.75;;;10.31;84.39
76404;BME280;65232;48.358;2.122;2023-01-08T00:07:11;99931.53;;;10.29;84.27
76404;BME280;65232;48.358;2.122;2023-01-08T00:07:36;99937.72;;;10.39;83.98
76404;BME280;65232;48.358;2.122;2023-01-08T00:08:02;99928.72;;;10.30;83.97
76404;BME280;65232;48.358;2.122;2023-01-08T00:08:28;99922.81;;;10.36;83.85
76404;BME280;65232;48.358;2.122;2023-01-08T00:08:54;99913.03;;;10.45;83.67
76404;BME280;65232;48.358;2.122;2023-01-08T00:09:19;99917.00;;;10.41;83.46
76404;BME280;65232;48.358;2.122;2023-01-08T00:09:45;99918.69;;;10.42;83.57
76404;BME280;65232;48.358;2.122;2023-01-08T00:10:12;99921.47;;;10.50;83.32
76404;BME280;65232;48.358;2.122;2023-01-08T00:10:37;99917.94;;;10.49;83.27
76404;BME280;65232;48.358;2.122;2023-01-08T00:11:03;99918.25;;;10.46;83.28
76404;BME280;65232;48.358;2.122;2023-01-08T00:11:29;99925.28;;;10.47;83.17
76404;BME280;65232;48.358;2.122;2023-01-08T00:11:54;99924.59;;;10.45;83.45
76404;BME280;65232;48.358;2.122;2023-01-08T00:12:20;99930.38;;;10.41;83.67
76404;BME280;65232;48.358;2.122;2023-01-08T00:12:46;99929.28;;;10.34;83.79
76404;BME280;65232;48.358;2.122;2023-01-08T00:13:11;99922.81;;;10.36;83.83
76404;BME280;65232;48.358;2.122;2023-01-08T00:13:37;99924.16;;;10.40;83.77
76404;BME280;65232;48.358;2.122;2023-01-08T00:14:02;99924.88;;;10.42;83.56
76404;BME280;65232;48.358;2.122;2023-01-08T00:14:29;99929.38;;;10.42;83.38
76404;BME280;65232;48.358;2.122;2023-01-08T00:14:54;99921.69;;;10.39;83.83
76404;BME280;65232;48.358;2.122;2023-01-08T00:15:20;99920.66;;;10.40;83.50
76404;BME280;65232;48.358;2.122;2023-01-08T00:15:46;99926.00;;;10.40;83.46
76404;BME280;65232;48.358;2.122;2023-01-08T00:16:14;99936.47;;;10.33;83.76
76404;BME280;65232;48.358;2.122;2023-01-08T00:16:39;99926.31;;;10.37;83.54
76404;BME280;65232;48.358;2.122;2023-01-08T00:17:05;99929.44;;;10.32;83.69
76404;BME280;65232;48.358;2.122;2023-01-08T00:17:31;99929.00;;;10.27;83.81
76404;BME280;65232;48.358;2.122;2023-01-08T00:17:56;99928.16;;;10.27;84.07
76404;BME280;65232;48.358;2.122;2023-01-08T00:18:22;99930.47;;;10.21;84.12
76404;BME280;65232;48.358;2.122;2023-01-08T00:18:48;99922.84;;;10.17;84.28
76404;BME280;65232;48.358;2.122;2023-01-08T00:19:14;99919.91;;;10.20;84.33
76404;BME280;65232;48.358;2.122;2023-01-08T00:19:39;99921.16;;;10.16;84.42
76404;BME280;65232;48.358;2.122;2023-01-08T00:20:06;99921.44;;;10.22;84.39
76404;BME280;65232;48.358;2.122;2023-01-08T00:20:32;99921.00;;;10.27;84.17
76404;BME280;65232;48.358;2.122;2023-01-08T00:20:58;99913.53;;;10.31;83.83
76404;BME280;65232;48.358;2.122;2023-01-08T00:21:23;99919.72;;;10.31;83.85
76404;BME280;65232;48.358;2.122;2023-01-08T00:21:49;99918.03;;;10.30;83.86
76404;BME280;65232;48.358;2.122;2023-01-08T00:22:14;99913.09;;;10.35;83.60
76404;BME280;65232;48.358;2.122;2023-01-08T00:22:40;99913.25;;;10.34;83.50
76404;BME280;65232;48.358;2.122;2023-01-08T00:23:05;99902.94;;;10.39;83.78
76404;BME280;65232;48.358;2.122;2023-01-08T00:23:31;99918.31;;;10.27;83.77
76404;BME280;65232;48.358;2.122;2023-01-08T00:23:56;99920.84;;;10.29;83.88
76404;BME280;65232;48.358;2.122;2023-01-08T00:24:22;99926.06;;;10.30;83.59
76404;BME280;65232;48.358;2.122;2023-01-08T00:24:47;99921.41;;;10.32;83.53
76404;BME280;65232;48.358;2.122;2023-01-08T00:25:13;99925.97;;;10.22;83.94
76404;BME280;65232;48.358;2.122;2023-01-08T00:25:38;99922.72;;;10.18;84.05
76404;BME280;65232;48.358;2.122;2023-01-08T00:26:07;99925.50;;;10.27;83.83
76404;BME280;65232;48.358;2.122;2023-01-08T00:26:32;99925.75;;;10.33;83.35
76404;BME280;65232;48.358;2.122;2023-01-08T00:26:58;99913.25;;;10.34;83.21
76404;BME280;65232;48.358;2.122;2023-01-08T00:27:23;99933.66;;;10.35;83.23
76404;BME280;65232;48.358;2.122;2023-01-08T00:27:49;99926.19;;;10.29;83.38
76404;BME280;65232;48.358;2.122;2023-01-08T00:28:14;99932.00;;;10.14;83.52
76404;BME280;65232;48.358;2.122;2023-01-08T00:28:41;99924.66;;;10.16;83.76
76404;BME280;65232;48.358;2.122;2023-01-08T00:29:06;99916.94;;;10.13;83.70
76404;BME280;65232;48.358;2.122;2023-01-08T00:29:32;99922.28;;;10.13;83.93
76404;BME280;65232;48.358;2.122;2023-01-08T00:29:57;99914.25;;;10.13;83.84
76404;BME280;65232;48.358;2.122;2023-01-08T00:30:22;99920.59;;;10.22;83.64
76404;BME280;65232;48.358;2.122;2023-01-08T00:30:48;99912.88;;;10.19;83.70
76404;BME280;65232;48.358;2.122;2023-01-08T00:31:13;99909.91;;;10.12;83.92
76404;BME280;65232;48.358;2.122;2023-01-08T00:31:39;99907.50;;;10.09;84.15
76404;BME280;65232;48.358;2.122;2023-01-08T00:32:04;99906.84;;;10.07;84.01
76404;BME280;65232;48.358;2.122;2023-01-08T00:32:30;99909.50;;;10.07;83.74
76404;BME280;65232;48.358;2.122;2023-01-08T00:32:55;99911.72;;;10.12;83.81
76404;BME280;65232;48.358;2.122;2023-01-08T00:33:21;99906.69;;;10.09;84.03
76404;BME280;65232;48.358;2.122;2023-01-08T00:33:46;99908.91;;;10.13;83.89
76404;BME280;65232;48.358;2.122;2023-01-08T00:34:12;99909.47;;;10.17;83.62
76404;BME280;65232;48.358;2.122;2023-01-08T00:34:37;99921.72;;;10.10;83.93
76404;BME280;65232;48.358;2.122;2023-01-08T00:35:03;99919.03;;;10.10;83.91
76404;BME280;65232;48.358;2.122;2023-01-08T00:35:29;99919.38;;;10.07;84.07
76404;BME280;65232;48.358;2.122;2023-01-08T00:35:54;99920.06;;;10.09;84.04
76404;BME280;65232;48.358;2.122;2023-01-08T00:36:20;99909.38;;;10.09;83.96
76404;BME280;65232;48.358;2.122;2023-01-08T00:36:45;99917.53;;;10.07;83.70
76404;BME280;65232;48.358;2.122;2023-01-08T00:37:11;99914.03;;;10.07;83.84
76404;BME280;65232;48.358;2.122;2023-01-08T00:37:36;99915.16;;;10.04;84.06
76404;BME280;65232;48.358;2.122;2023-01-08T00:38:02;99910.19;;;10.09;83.85
76404;BME280;65232;48.358;2.122;2023-01-08T00:38:28;99912.72;;;10.11;83.73
76404;BME280;65232;48.358;2.122;2023-01-08T00:38:53;99914.25;;;10.13;83.47
76404;BME280;65232;48.358;2.122;2023-01-08T00:39:19;99910.59;;;10.14;83.41
76404;BME280;65232;48.358;2.122;2023-01-08T00:39:45;99909.91;;;10.22;83.09
76404;BME280;65232;48.358;2.122;2023-01-08T00:40:10;99908.59;;;10.26;83.02
76404;BME280;65232;48.358;2.122;2023-01-08T00:40:36;99909.75;;;10.14;83.16
76404;BME280;65232;48.358;2.122;2023-01-08T00:41:03;99907.63;;;10.17;82.95
76404;BME280;65232;48.358;2.122;2023-01-08T00:41:29;99911.59;;;10.23;82.91
76404;BME280;65232;48.358;2.122;2023-01-08T00:41:54;99912.03;;;10.18;82.78
76404;BME280;65232;48.358;2.122;2023-01-08T00:42:20;99911.03;;;10.19;82.58
76404;BME280;65232;48.358;2.122;2023-01-08T00:42:46;99912.13;;;10.27;82.42
76404;BME280;65232;48.358;2.122;2023-01-08T00:43:11;99914.09;;;10.24;82.56
76404;BME280;65232;48.358;2.122;2023-01-08T00:43:37;99913.25;;;10.24;82.41
76404;BME280;65232;48.358;2.122;2023-01-08T00:44:02;99919.75;;;10.21;82.57
76404;BME280;65232;48.358;2.122;2023-01-08T00:44:28;99915.13;;;10.23;82.39
76404;BME280;65232;48.358;2.122;2023-01-08T00:44:53;99921.16;;;10.16;82.51
76404;BME280;65232;48.358;2.122;2023-01-08T00:45:19;99916.09;;;10.13;82.81
76404;BME280;65232;48.358;2.122;2023-01-08T00:45:44;99908.22;;;10.11;82.78
76404;BME280;65232;48.358;2.122;2023-01-08T00:46:10;99917.69;;;10.06;83.18
76404;BME280;65232;48.358;2.122;2023-01-08T00:46:35;99916.28;;;10.02;83.18
76404;BME280;65232;48.358;2.122;2023-01-08T00:47:01;99915.44;;;10.01;83.39
76404;BME280;65232;48.358;2.122;2023-01-08T00:47:26;99911.50;;;10.05;83.33
76404;BME280;65232;48.358;2.122;2023-01-08T00:47:52;99906.84;;;10.07;82.88
76404;BME280;65232;48.358;2.122;2023-01-08T00:48:17;99909.63;;;10.15;82.83
76404;BME280;65232;48.358;2.122;2023-01-08T00:48:42;99912.44;;;10.14;83.07
76404;BME280;65232;48.358;2.122;2023-01-08T00:49:08;99910.19;;;10.19;82.59
76404;BME280;65232;48.358;2.122;2023-01-08T00:49:33;99909.22;;;10.20;82.64
76404;BME280;65232;48.358;2.122;2023-01-08T00:49:59;99913.81;;;10.18;82.32
76404;BME280;65232;48.358;2.122;2023-01-08T00:50:25;99902.56;;;10.24;82.38
76404;BME280;65232;48.358;2.122;2023-01-08T00:50:51;99907.38;;;10.20;82.40
76404;BME280;65232;48.358;2.122;2023-01-08T00:51:17;99902.44;;;10.16;82.43
76404;BME280;65232;48.358;2.122;2023-01-08T00:51:43;99918.63;;;10.14;82.64
76404;BME280;65232;48.358;2.122;2023-01-08T00:52:08;99907.69;;;9.98;83.03
76404;BME280;65232;48.358;2.122;2023-01-08T00:52:34;99914.59;;;10.01;83.06
76404;BME280;65232;48.358;2.122;2023-01-08T00:52:59;99916.13;;;10.03;83.11
76404;BME280;65232;48.358;2.122;2023-01-08T00:53:25;99913.31;;;9.95;83.12
76404;BME280;65232;48.358;2.122;2023-01-08T00:53:50;99913.78;;;9.90;83.49
76404;BME280;65232;48.358;2.122;2023-01-08T00:54:16;99912.34;;;9.96;83.14
76404;BME280;65232;48.358;2.122;2023-01-08T00:54:41;99911.66;;;9.94;83.53
76404;BME280;65232;48.358;2.122;2023-01-08T00:55:07;99909.97;;;9.93;83.55
76404;BME280;65232;48.358;2.122;2023-01-08T00:55:33;99896.84;;;10.00;83.12
76404;BME280;65232;48.358;2.122;2023-01-08T00:56:06;99906.41;;;10.02;82.86
76404;BME280;65232;48.358;2.122;2023-01-08T00:56:32;99900.38;;;10.00;82.99
76404;BME280;65232;48.358;2.122;2023-01-08T00:56:58;99902.22;;;10.00;83.01
76404;BME280;65232;48.358;2.122;2023-01-08T00:57:23;99895.31;;;10.07;82.75
76404;BME280;65232;48.358;2.122;2023-01-08T00:57:49;99898.81;;;10.07;82.64
76404;BME280;65232;48.358;2.122;2023-01-08T00:58:14;99895.84;;;10.10;82.64
76404;BME280;65232;48.358;2.122;2023-01-08T00:58:40;99903.00;;;10.10;82.72
76404;BME280;65232;48.358;2.122;2023-01-08T00:59:05;99900.78;;;10.05;82.62
76404;BME280;65232;48.358;2.122;2023-01-08T00:59:31;99897.69;;;10.00;82.79
76404;BME280;65232;48.358;2.122;2023-01-08T00:59:56;99903.47;;;10.05;82.57
76404;BME280;65232;48.358;2.122;2023-01-08T01:00:22;99904.31;;;10.06;82.50
76404;BME280;65232;48.358;2.122;2023-01-08T01:00:48;99905.16;;;10.06;82.42
76404;BME280;65232;48.358;2.122;2023-01-08T01:01:14;99900.94;;;10.04;82.58
76404;BME280;65232;48.358;2.122;2023-01-08T01:01:40;99903.03;;;10.00;82.69
76404;BME280;65232;48.358;2.122;2023-01-08T01:02:06;99905.72;;;10.00;82.66
76404;BME280;65232;48.358;2.122;2023-01-08T01:02:33;99907.81;;;10.06;82.43
76404;BME280;65232;48.358;2.122;2023-01-08T01:02:59;99911.06;;;10.00;82.51
76404;BME280;65232;48.358;2.122;2023-01-08T01:03:25;99905.72;;;10.00;82.62
76404;BME280;65232;48.358;2.122;2023-01-08T01:03:50;99902.34;;;9.98;82.77
76404;BME280;65232;48.358;2.122;2023-01-08T01:04:16;99899.69;;;9.98;82.59
76404;BME280;65232;48.358;2.122;2023-01-08T01:04:41;99910.38;;;9.98;82.65
76404;BME280;65232;48.358;2.122;2023-01-08T01:05:07;99902.06;;;10.01;82.62
76404;BME280;65232;48.358;2.122;2023-01-08T01:05:34;99900.53;;;9.99;82.47
76404;BME280;65232;48.358;2.122;2023-01-08T01:06:00;99899.69;;;9.98;82.51
76404;BME280;65232;48.358;2.122;2023-01-08T01:06:26;99899.81;;;9.97;82.90
76404;BME280;65232;48.358;2.122;2023-01-08T01:06:51;99897.84;;;9.99;82.51
76404;BME280;65232;48.358;2.122;2023-01-08T01:07:17;99899.13;;;9.95;82.40
76404;BME280;65232;48.358;2.122;2023-01-08T01:07:43;99887.16;;;9.99;82.46
76404;BME280;65232;48.358;2.122;2023-01-08T01:08:09;99890.28;;;9.94;82.51
76404;BME280;65232;48.358;2.122;2023-01-08T01:08:34;99892.25;;;9.92;82.71
76404;BME280;65232;48.358;2.122;2023-01-08T01:09:00;99894.75;;;10.03;82.60
76404;BME280;65232;48.358;2.122;2023-01-08T01:09:25;99900.81;;;9.96;82.69
76404;BME280;65232;48.358;2.122;2023-01-08T01:09:51;99890.44;;;9.93;82.63
76404;BME280;65232;48.358;2.122;2023-01-08T01:10:16;99895.63;;;9.94;82.76
76404;BME280;65232;48.358;2.122;2023-01-08T01:10:42;99893.09;;;9.93;82.78
76404;BME280;65232;48.358;2.122;2023-01-08T01:11:16;99895.63;;;9.94;82.83
76404;BME280;65232;48.358;2.122;2023-01-08T01:11:42;99890.84;;;9.88;82.79
76404;BME280;65232;48.358;2.122;2023-01-08T01:12:07;99889.44;;;9.84;83.09
76404;BME280;65232;48.358;2.122;2023-01-08T01:12:33;99893.53;;;9.88;82.96
76404;BME280;65232;48.358;2.122;2023-01-08T01:12:58;99892.97;;;9.94;82.83
76404;BME280;65232;48.358;2.122;2023-01-08T01:13:24;99888.59;;;9.93;82.89
76404;BME280;65232;48.358;2.122;2023-01-08T01:13:50;99888.75;;;9.92;82.89
76404;BME280;65232;48.358;2.122;2023-01-08T01:14:16;99885.09;;;9.83;83.13
76404;BME280;65232;48.358;2.122;2023-01-08T01:14:41;99896.22;;;9.78;83.29
76404;BME280;65232;48.358;2.122;2023-01-08T01:15:09;99892.13;;;9.84;83.17
76404;BME280;65232;48.358;2.122;2023-01-08T01:15:35;99878.91;;;9.82;83.31
76404;BME280;65232;48.358;2.122;2023-01-08T01:16:01;99878.63;;;9.85;83.38
76404;BME280;65232;48.358;2.122;2023-01-08T01:16:27;99888.75;;;9.82;83.30
76404;BME280;65232;48.358;2.122;2023-01-08T01:16:52;99893.09;;;9.83;83.27
76404;BME280;65232;48.358;2.122;2023-01-08T01:17:18;99889.44;;;9.84;83.16
76404;BME280;65232;48.358;2.122;2023-01-08T01:17:44;99883.81;;;9.87;83.38
76404;BME280;65232;48.358;2.122;2023-01-08T01:18:10;99881.72;;;9.81;83.40
76404;BME280;65232;48.358;2.122;2023-01-08T01:18:35;99882.03;;;9.78;83.54
76404;BME280;65232;48.358;2.122;2023-01-08T01:19:01;99893.25;;;9.81;83.42
76404;BME280;65232;48.358;2.122;2023-01-08T01:19:27;99899.16;;;9.85;83.40
76404;BME280;65232;48.358;2.122;2023-01-08T01:19:52;99885.09;;;9.83;83.19
76404;BME280;65232;48.358;2.122;2023-01-08T01:20:18;99887.19;;;9.79;83.37
76404;BME280;65232;48.358;2.122;2023-01-08T01:20:43;99887.78;;;9.73;83.38
76404;BME280;65232;48.358;2.122;2023-01-08T01:21:11;99886.81;;;9.74;83.68
76404;BME280;65232;48.358;2.122;2023-01-08T01:21:36;99892.53;;;9.79;83.54
76404;BME280;65232;48.358;2.122;2023-01-08T01:22:02;99883.28;;;9.74;83.48
76404;BME280;65232;48.358;2.122;2023-01-08T01:22:27;99882.47;;;9.73;83.54
76404;BME280;65232;48.358;2.122;2023-01-08T01:22:53;99888.06;;;9.70;83.78
76404;BME280;65232;48.358;2.122;2023-01-08T01:23:19;99881.47;;;9.74;83.99
76404;BME280;65232;48.358;2.122;2023-01-08T01:23:44;99891.59;;;9.71;83.64
76404;BME280;65232;48.358;2.122;2023-01-08T01:24:11;99887.78;;;9.73;83.78
76404;BME280;65232;48.358;2.122;2023-01-08T01:24:37;99889.19;;;9.77;83.65
76404;BME280;65232;48.358;2.122;2023-01-08T01:25:03;99886.53;;;9.77;83.31
76404;BME280;65232;48.358;2.122;2023-01-08T01:25:28;99890.03;;;9.78;83.42
76404;BME280;65232;48.358;2.122;2023-01-08T01:25:54;99890.19;;;9.76;83.47
76404;BME280;65232;48.358;2.122;2023-01-08T01:26:21;99896.63;;;9.83;83.17
76404;BME280;65232;48.358;2.122;2023-01-08T01:26:46;99901.41;;;9.89;83.07
76404;BME280;65232;48.358;2.122;2023-01-08T01:27:12;99889.59;;;9.92;82.81
76404;BME280;65232;48.358;2.122;2023-01-08T01:27:37;99895.78;;;9.83;83.18
76404;BME280;65232;48.358;2.122;2023-01-08T01:28:03;99890.28;;;9.84;82.95
76404;BME280;65232;48.358;2.122;2023-01-08T01:28:28;99900.97;;;9.84;83.03
76404;BME280;65232;48.358;2.122;2023-01-08T01:28:56;99898.44;;;9.83;83.05
76404;BME280;65232;48.358;2.122;2023-01-08T01:29:23;99901.25;;;9.81;83.29
76404;BME280;65232;48.358;2.122;2023-01-08T01:29:49;99908.28;;;9.82;83.38
76404;BME280;65232;48.358;2.122;2023-01-08T01:30:14;99901.13;;;9.83;83.27
76404;BME280;65232;48.358;2.122;2023-01-08T01:30:40;99900.13;;;9.84;83.24
76404;BME280;65232;48.358;2.122;2023-01-08T01:31:05;99896.63;;;9.83;83.32
76404;BME280;65232;48.358;2.122;2023-01-08T01:31:31;99906.31;;;9.84;83.37
76404;BME280;65232;48.358;2.122;2023-01-08T01:31:57;99897.34;;;9.76;83.58
76404;BME280;65232;48.358;2.122;2023-01-08T01:32:22;99893.84;;;9.75;83.87
76404;BME280;65232;48.358;2.122;2023-01-08T01:32:48;99888.50;;;9.75;83.52
76404;BME280;65232;48.358;2.122;2023-01-08T01:33:13;99891.16;;;9.75;83.58
76404;BME280;65232;48.358;2.122;2023-01-08T01:33:40;99883.44;;;9.72;83.76
76404;BME280;65232;48.358;2.122;2023-01-08T01:34:06;99889.06;;;9.69;83.91
76404;BME280;65232;48.358;2.122;2023-01-08T01:34:31;99878.66;;;9.66;84.12
76404;BME280;65232;48.358;2.122;2023-01-08T01:34:57;99889.34;;;9.66;84.12
76404;BME280;65232;48.358;2.122;2023-01-08T01:35:22;99884.69;;;9.78;83.95
76404;BME280;65232;48.358;2.122;2023-01-08T01:35:48;99875.81;;;9.87;83.61
76404;BME280;65232;48.358;2.122;2023-01-08T01:36:15;99878.19;;;9.80;83.61
76404;BME280;65232;48.358;2.122;2023-01-08T01:36:40;99881.84;;;9.79;83.61
76404;BME280;65232;48.358;2.122;2023-01-08T01:37:06;99893.69;;;9.77;83.76
76404;BME280;65232;48.358;2.122;2023-01-08T01:37:31;99881.75;;;9.71;83.85
76404;BME280;65232;48.358;2.122;2023-01-08T01:37:57;99884.84;;;9.76;83.45
76404;BME280;65232;48.358;2.122;2023-01-08T01:38:22;99887.50;;;9.76;83.75
76404;BME280;65232;48.358;2.122;2023-01-08T01:38:49;99882.59;;;9.72;83.75
76404;BME280;65232;48.358;2.122;2023-01-08T01:39:15;99885.41;;;9.70;83.91
76404;BME280;65232;48.358;2.122;2023-01-08T01:39:41;99893.16;;;9.73;83.83
76404;BME280;65232;48.358;2.122;2023-01-08T01:40:11;99888.38;;;9.77;83.93
76404;BME280;65232;48.358;2.122;2023-01-08T01:40:41;99883.44;;;9.72;83.81
76404;BME280;65232;48.358;2.122;2023-01-08T01:41:16;99888.78;;;9.72;84.04
76404;BME280;65232;48.358;2.122;2023-01-08T01:41:44;99884.41;;;9.71;84.22
76404;BME280;65232;48.358;2.122;2023-01-08T01:42:14;99882.03;;;9.68;84.20
76404;BME280;65232;48.358;2.122;2023-01-08T01:43:00;99886.41;;;9.69;84.17
76404;BME280;65232;48.358;2.122;2023-01-08T01:43:39;99882.88;;;9.69;84.08
76404;BME280;65232;48.358;2.122;2023-01-08T01:44:59;99879.09;;;9.71;83.79
76404;BME280;65232;48.358;2.122;2023-01-08T01:45:26;99881.75;;;9.71;84.05
76404;BME280;65232;48.358;2.122;2023-01-08T01:45:55;99875.84;;;9.68;84.02
76404;BME280;65232;48.358;2.122;2023-01-08T01:46:54;99872.47;;;9.66;84.18
76404;BME280;65232;48.358;2.122;2023-01-08T01:47:24;99876.00;;;9.66;84.30
76404;BME280;65232;48.358;2.122;2023-01-08T01:47:56;99887.38;;;9.68;84.21
76404;BME280;65232;48.358;2.122;2023-01-08T01:48:22;99877.69;;;9.67;84.13
76404;BME280;65232;48.358;2.122;2023-01-08T01:48:50;99871.78;;;9.73;84.11
76404;BME280;65232;48.358;2.122;2023-01-08T01:49:19;99873.75;;;9.71;83.98
76404;BME280;65232;48.358;2.122;2023-01-08T01:50:09;99875.28;;;9.74;84.02
76404;BME280;65232;48.358;2.122;2023-01-08T01:50:55;99872.19;;;9.69;84.23
76404;BME280;65232;48.358;2.122;2023-01-08T01:51:21;99870.50;;;9.68;84.30
76404;BME280;65232;48.358;2.122;2023-01-08T01:51:48;99879.63;;;9.75;84.00
76404;BME280;65232;48.358;2.122;2023-01-08T01:52:15;99879.91;;;9.72;83.96
76404;BME280;65232;48.358;2.122;2023-01-08T01:52:44;99876.00;;;9.66;84.14
76404;BME280;65232;48.358;2.122;2023-01-08T01:53:15;99871.50;;;9.67;84.17
76404;BME280;65232;48.358;2.122;2023-01-08T01:53:42;99874.72;;;9.70;84.09
76404;BME280;65232;48.358;2.122;2023-01-08T01:54:10;99875.72;;;9.69;83.92
76404;BME280;65232;48.358;2.122;2023-01-08T01:54:35;99874.03;;;9.68;84.06
76404;BME280;65232;48.358;2.122;2023-01-08T01:55:02;99877.13;;;9.73;83.97
76404;BME280;65232;48.358;2.122;2023-01-08T01:55:29;99881.91;;;9.70;84.09
76404;BME280;65232;48.358;2.122;2023-01-08T01:55:56;99879.38;;;9.68;83.93
76404;BME280;65232;48.358;2.122;2023-01-08T01:56:22;99876.97;;;9.65;84.32
76404;BME280;65232;48.358;2.122;2023-01-08T01:56:48;99877.69;;;9.67;83.97
76404;BME280;65232;48.358;2.122;2023-01-08T01:57:14;99881.91;;;9.70;84.02
76404;BME280;65232;48.358;2.122;2023-01-08T01:57:45;99881.47;;;9.74;83.94
76404;BME280;65232;48.358;2.122;2023-01-08T01:58:24;99882.75;;;9.70;83.84
76404;BME280;65232;48.358;2.122;2023-01-08T01:58:50;99878.25;;;9.71;83.79
76404;BME280;65232;48.358;2.122;2023-01-08T01:59:16;99882.88;;;9.69;84.15
76404;BME280;65232;48.358;2.122;2023-01-08T01:59:41;99883.59;;;9.71;83.92
76404;BME280;65232;48.358;2.122;2023-01-08T02:00:08;99892.28;;;9.73;84.01
76404;BME280;65232;48.358;2.122;2023-01-08T02:00:41;99882.88;;;9.69;83.79
76404;BME280;65232;48.358;2.122;2023-01-08T02:01:08;99888.38;;;9.67;83.89
76404;BME280;65232;48.358;2.122;2023-01-08T02:01:35;99887.25;;;9.70;84.02
76404;BME280;65232;48.358;2.122;2023-01-08T02:02:00;99889.19;;;9.68;84.04
76404;BME280;65232;48.358;2.122;2023-01-08T02:02:26;99904.25;;;9.69;84.23
76404;BME280;65232;48.358;2.122;2023-01-08T02:02:52;99886.13;;;9.72;83.74
76404;BME280;65232;48.358;2.122;2023-01-08T02:03:21;99897.63;;;9.73;83.71
76404;BME280;65232;48.358;2.122;2023-01-08T02:03:47;99897.22;;;9.77;83.58
76404;BME280;65232;48.358;2.122;2023-01-08T02:04:13;99901.44;;;9.70;83.72
76404;BME280;65232;48.358;2.122;2023-01-08T02:04:38;99889.19;;;9.68;83.90
76404;BME280;65232;48.358;2.122;2023-01-08T02:05:05;99899.19;;;9.66;83.87
76404;BME280;65232;48.358;2.122;2023-01-08T02:08:05;99897.06;;;9.69;83.98
76404;BME280;65232;48.358;2.122;2023-01-08T02:08:55;99892.84;;;9.67;84.01
76404;BME280;65232;48.358;2.122;2023-01-08T02:09:34;99900.59;;;9.70;83.92
76404;BME280;65232;48.358;2.122;2023-01-08T02:10:21;99894.69;;;9.66;84.01
76404;BME280;65232;48.358;2.122;2023-01-08T02:10:55;99894.81;;;9.74;83.80
76404;BME280;65232;48.358;2.122;2023-01-08T02:12:10;99898.59;;;9.81;83.60
76404;BME280;65232;48.358;2.122;2023-01-08T02:12:45;99892.84;;;9.76;83.67
76404;BME280;65232;48.358;2.122;2023-01-08T02:13:22;99892.03;;;9.76;83.64
76404;BME280;65232;48.358;2.122;2023-01-08T02:13:55;99889.34;;;9.76;83.55
76404;BME280;65232;48.358;2.122;2023-01-08T02:14:31;99893.16;;;9.73;83.60
76404;BME280;65232;48.358;2.122;2023-01-08T02:15:12;99896.50;;;9.75;83.79
76404;BME280;65232;48.358;2.122;2023-01-08T02:15:50;99891.31;;;9.74;83.67
76404;BME280;65232;48.358;2.122;2023-01-08T02:16:36;99887.66;;;9.75;83.58
76404;BME280;65232;48.358;2.122;2023-01-08T02:17:08;99889.06;;;9.79;83.58
76404;BME280;65232;48.358;2.122;2023-01-08T02:18:46;99892.28;;;9.73;83.67
76404;BME280;65232;48.358;2.122;2023-01-08T02:20:12;99895.09;;;9.71;83.64
76404;BME280;65232;48.358;2.122;2023-01-08T02:20:42;99891.88;;;9.68;83.59
76404;BME280;65232;48.358;2.122;2023-01-08T02:21:12;99889.50;;;9.74;83.82
76404;BME280;65232;48.358;2.122;2023-01-08T02:22:05;99891.59;;;9.71;83.75
76404;BME280;65232;48.358;2.122;2023-01-08T02:22:58;99894.97;;;9.73;83.82
76404;BME280;65232;48.358;2.122;2023-01-08T02:23:46;99893.41;;;9.70;83.80
76404;BME280;65232;48.358;2.122;2023-01-08T02:26:06;99907.66;;;9.61;84.17
76404;BME280;65232;48.358;2.122;2023-01-08T02:26:35;99903.56;;;9.57;84.35
76404;BME280;65232;48.358;2.122;2023-01-08T02:27:02;99900.06;;;9.57;84.05
76404;BME280;65232;48.358;2.122;2023-01-08T02:27:30;99906.09;;;9.59;84.24
76404;BME280;65232;48.358;2.122;2023-01-08T02:27:59;99897.09;;;9.60;84.31
76404;BME280;65232;48.358;2.122;2023-01-08T02:28:28;99899.03;;;9.67;84.14
76404;BME280;65232;48.358;2.122;2023-01-08T02:29:15;99903.00;;;9.63;84.06
76404;BME280;65232;48.358;2.122;2023-01-08T02:29:43;99903.53;;;9.67;84.13
76404;BME280;65232;48.358;2.122;2023-01-08T02:30:09;99899.88;;;9.68;84.11
76404;BME280;65232;48.358;2.122;2023-01-08T02:30:35;99898.50;;;9.64;84.11
76404;BME280;65232;48.358;2.122;2023-01-08T02:31:01;99899.34;;;9.64;84.16
76404;BME280;65232;48.358;2.122;2023-01-08T02:31:29;99908.47;;;9.71;83.98
76404;BME280;65232;48.358;2.122;2023-01-08T02:31:55;99892.72;;;9.68;84.04
76404;BME280;65232;48.358;2.122;2023-01-08T02:32:27;99899.88;;;9.68;84.17
76404;BME280;65232;48.358;2.122;2023-01-08T02:32:57;99903.97;;;9.72;84.04
76404;BME280;65232;48.358;2.122;2023-01-08T02:33:23;99898.19;;;9.76;83.80
76404;BME280;65232;48.358;2.122;2023-01-08T02:33:51;99906.91;;;9.78;83.60
76404;BME280;65232;48.358;2.122;2023-01-08T02:34:17;99897.63;;;9.73;83.81